sensor_id;sensor_type;location;lat;lon;timestamp;pressure;altitude;pressure_sealevel;temperature;humidity
51603;BME280;37954;51.980;5.850;2022-07-06T00:00:46;102219.34;;;14.39;63.86
51603;BME280;37954;51.980;5.850;2022-07-06T00:04:57;102229.34;;;14.38;63.36
51603;BME280;37954;51.980;5.850;2022-07-06T00:09:09;102221.66;;;14.35;63.39
51603;BME280;37954;51.980;5.850;2022-07-06T00:13:21;102210.22;;;14.33;63.54
51603;BME280;37954;51.980;5.850;2022-07-06T00:17:32;102217.31;;;14.27;64.09
51603;BME280;37954;51.980;5.850;2022-07-06T00:21:44;102228.31;;;14.26;64.20
51603;BME280;37954;51.980;5.850;2022-07-06T00:25:55;102227.09;;;14.15;64.61
51603;BME280;37954;51.980;5.850;2022-07-06T00:30:07;102230.44;;;14.11;64.98
51603;BME280;37954;51.980;5.850;2022-07-06T00:34:19;102226.06;;;14.03;66.04
51603;BME280;37954;51.980;5.850;2022-07-06T00:38:31;102226.31;;;14.02;65.98
51603;BME280;37954;51.980;5.850;2022-07-06T00:42:44;102223.59;;;14.02;65.61
51603;BME280;37954;51.980;5.850;2022-07-06T00:46:56;102225.88;;;13.98;65.80
51603;BME280;37954;51.980;5.850;2022-07-06T00:51:08;102222.34;;;13.98;66.47
51603;BME280;37954;51.980;5.850;2022-07-06T00:55:23;102228.59;;;13.98;66.08
51603;BME280;37954;51.980;5.850;2022-07-06T00:59:35;102232.75;;;13.94;66.23
51603;BME280;37954;51.980;5.850;2022-07-06T01:03:47;102224.22;;;13.97;66.50
51603;BME280;37954;51.980;5.850;2022-07-06T01:07:59;102216.31;;;13.89;66.64
51603;BME280;37954;51.980;5.850;2022-07-06T01:12:12;102214.66;;;13.88;66.83
51603;BME280;37954;51.980;5.850;2022-07-06T01:16:30;102229.81;;;13.89;66.65
51603;BME280;37954;51.980;5.850;2022-07-06T01:21:23;102206.16;;;13.78;67.00
51603;BME280;37954;51.980;5.850;2022-07-06T01:25:38;102225.06;;;13.78;67.10
51603;BME280;37954;51.980;5.850;2022-07-06T01:29:55;102215.91;;;13.79;66.73
51603;BME280;37954;51.980;5.850;2022-07-06T01:34:11;102193.69;;;13.57;67.62
51603;BME280;37954;51.980;5.850;2022-07-06T01:38:29;102196.59;;;13.55;67.31
51603;BME280;37954;51.980;5.850;2022-07-06T01:42:44;102198.66;;;13.53;67.29
51603;BME280;37954;51.980;5.850;2022-07-06T01:46:56;102214.03;;;13.59;67.89
51603;BME280;37954;51.980;5.850;2022-07-06T01:51:10;102189.94;;;13.45;68.59
51603;BME280;37954;51.980;5.850;2022-07-06T01:55:26;102213.63;;;13.56;68.50
51603;BME280;37954;51.980;5.850;2022-07-06T01:59:38;102211.13;;;13.54;68.78
51603;BME280;37954;51.980;5.850;2022-07-06T02:03:51;102205.28;;;13.51;68.79
51603;BME280;37954;51.980;5.850;2022-07-06T02:08:17;102193.47;;;13.45;69.73
51603;BME280;37954;51.980;5.850;2022-07-06T02:12:57;102217.75;;;13.52;69.50
51603;BME280;37954;51.980;5.850;2022-07-06T02:17:18;102206.53;;;13.35;69.30
51603;BME280;37954;51.980;5.850;2022-07-06T02:21:31;102210.06;;;13.36;69.33
51603;BME280;37954;51.980;5.850;2022-07-06T02:25:56;102197.38;;;13.23;69.51
51603;BME280;37954;51.980;5.850;2022-07-06T02:30:14;102199.03;;;13.24;69.11
51603;BME280;37954;51.980;5.850;2022-07-06T02:34:35;102193.63;;;13.17;69.23
51603;BME280;37954;51.980;5.850;2022-07-06T02:38:47;102215.66;;;13.21;69.31
51603;BME280;37954;51.980;5.850;2022-07-06T02:43:02;102209.81;;;13.17;69.51
51603;BME280;37954;51.980;5.850;2022-07-06T02:47:22;102214.78;;;13.14;69.09
51603;BME280;37954;51.980;5.850;2022-07-06T02:51:42;102187.53;;;12.96;69.23
51603;BME280;37954;51.980;5.850;2022-07-06T02:56:09;102214.13;;;13.05;69.20
51603;BME280;37954;51.980;5.850;2022-07-06T03:00:38;102213.50;;;13.03;69.34
51603;BME280;37954;51.980;5.850;2022-07-06T03:04:59;102190.00;;;12.90;69.88
51603;BME280;37954;51.980;5.850;2022-07-06T03:09:15;102200.41;;;12.94;69.80
51603;BME280;37954;51.980;5.850;2022-07-06T03:13:33;102200.41;;;12.94;70.58
51603;BME280;37954;51.980;5.850;2022-07-06T03:17:47;102207.66;;;13.00;70.72
51603;BME280;37954;51.980;5.850;2022-07-06T03:22:07;102212.91;;;13.14;70.48
51603;BME280;37954;51.980;5.850;2022-07-06T03:26:30;102205.88;;;13.20;70.09
51603;BME280;37954;51.980;5.850;2022-07-06T03:30:45;102219.22;;;13.41;70.71
51603;BME280;37954;51.980;5.850;2022-07-06T03:35:07;102216.53;;;13.48;70.20
51603;BME280;37954;51.980;5.850;2022-07-06T03:39:36;102209.88;;;13.57;70.16
51603;BME280;37954;51.980;5.850;2022-07-06T03:43:49;102214.47;;;13.76;69.50
51603;BME280;37954;51.980;5.850;2022-07-06T03:48:05;102213.44;;;13.84;69.29
51603;BME280;37954;51.980;5.850;2022-07-06T03:52:45;102242.50;;;14.15;69.54
51603;BME280;37954;51.980;5.850;2022-07-06T03:57:52;102234.16;;;14.23;68.94
51603;BME280;37954;51.980;5.850;2022-07-06T04:02:45;102244.34;;;14.41;68.57
51603;BME280;37954;51.980;5.850;2022-07-06T04:07:39;102223.75;;;14.33;68.21
51603;BME280;37954;51.980;5.850;2022-07-06T04:13:23;102233.50;;;14.47;68.14
51603;BME280;37954;51.980;5.850;2022-07-06T04:22:38;102215.84;;;14.32;67.59
51603;BME280;37954;51.980;5.850;2022-07-06T04:26:51;102198.22;;;14.16;67.67
51603;BME280;37954;51.980;5.850;2022-07-06T04:31:02;102230.81;;;14.27;68.18
51603;BME280;37954;51.980;5.850;2022-07-06T04:35:14;102216.47;;;14.20;67.93
51603;BME280;37954;51.980;5.850;2022-07-06T04:39:28;102235.41;;;14.27;67.87
51603;BME280;37954;51.980;5.850;2022-07-06T04:43:42;102228.75;;;14.29;67.80
51603;BME280;37954;51.980;5.850;2022-07-06T04:47:58;102207.75;;;14.32;67.57
51603;BME280;37954;51.980;5.850;2022-07-06T04:52:10;102218.94;;;14.48;67.74
51603;BME280;37954;51.980;5.850;2022-07-06T04:56:22;102197.66;;;14.65;67.73
51603;BME280;37954;51.980;5.850;2022-07-06T05:00:34;102211.16;;;16.41;66.98
51603;BME280;37954;51.980;5.850;2022-07-06T05:17:17;102241.63;;;22.46;52.17
51603;BME280;37954;51.980;5.850;2022-07-06T05:38:20;102243.88;;;21.43;51.46
51603;BME280;37954;51.980;5.850;2022-07-06T06:30:16;102249.66;;;27.42;39.33
51603;BME280;37954;51.980;5.850;2022-07-06T06:34:30;102256.25;;;28.11;36.86
51603;BME280;37954;51.980;5.850;2022-07-06T06:38:42;102261.03;;;28.51;35.34
51603;BME280;37954;51.980;5.850;2022-07-06T06:42:53;102262.31;;;28.40;35.60
51603;BME280;37954;51.980;5.850;2022-07-06T06:47:06;102251.09;;;28.50;34.65
51603;BME280;37954;51.980;5.850;2022-07-06T06:51:26;102247.00;;;29.11;34.59
51603;BME280;37954;51.980;5.850;2022-07-06T07:28:26;102249.31;;;29.31;31.78
51603;BME280;37954;51.980;5.850;2022-07-06T07:32:47;102270.25;;;29.60;31.05
51603;BME280;37954;51.980;5.850;2022-07-06T07:37:05;102267.53;;;29.91;30.33
51603;BME280;37954;51.980;5.850;2022-07-06T07:41:17;102253.69;;;30.61;30.19
51603;BME280;37954;51.980;5.850;2022-07-06T08:34:19;102256.16;;;30.71;25.68
51603;BME280;37954;51.980;5.850;2022-07-06T08:38:31;102275.84;;;29.68;27.19
51603;BME280;37954;51.980;5.850;2022-07-06T08:42:43;102239.97;;;29.05;28.12
51603;BME280;37954;51.980;5.850;2022-07-06T08:46:57;102270.81;;;29.70;27.45
51603;BME280;37954;51.980;5.850;2022-07-06T08:51:15;102237.94;;;30.39;26.50
51603;BME280;37954;51.980;5.850;2022-07-06T09:08:07;102270.94;;;31.75;24.15
51603;BME280;37954;51.980;5.850;2022-07-06T09:12:21;102227.38;;;30.10;24.13
51603;BME280;37954;51.980;5.850;2022-07-06T09:16:36;102244.44;;;29.15;25.04
51603;BME280;37954;51.980;5.850;2022-07-06T09:20:51;102262.63;;;29.65;25.85
51603;BME280;37954;51.980;5.850;2022-07-06T09:25:14;102265.66;;;29.77;nan
51603;BME280;37954;51.980;5.850;2022-07-06T09:29:31;102249.25;;;29.23;26.00
51603;BME280;37954;51.980;5.850;2022-07-06T09:34:00;102237.25;;;29.50;26.18
51603;BME280;37954;51.980;5.850;2022-07-06T09:38:14;102235.53;;;30.46;24.90
51603;BME280;37954;51.980;5.850;2022-07-06T09:42:28;102235.28;;;30.26;24.53
51603;BME280;37954;51.980;5.850;2022-07-06T09:46:46;102239.19;;;30.73;24.56
51603;BME280;37954;51.980;5.850;2022-07-06T09:51:01;102265.09;;;31.17;24.23
51603;BME280;37954;51.980;5.850;2022-07-06T09:55:21;102257.13;;;30.58;24.30
51603;BME280;37954;51.980;5.850;2022-07-06T09:59:41;102258.97;;;30.89;23.94
51603;BME280;37954;51.980;5.850;2022-07-06T10:04:01;102263.66;;;30.71;24.02
51603;BME280;37954;51.980;5.850;2022-07-06T10:08:14;102255.84;;;30.64;24.15
51603;BME280;37954;51.980;5.850;2022-07-06T10:12:26;102259.44;;;30.34;24.27
51603;BME280;37954;51.980;5.850;2022-07-06T10:16:41;102242.38;;;29.20;25.70
51603;BME280;37954;51.980;5.850;2022-07-06T10:20:56;102265.13;;;28.81;26.98
51603;BME280;37954;51.980;5.850;2022-07-06T10:25:19;102259.53;;;29.44;26.55
51603;BME280;37954;51.980;5.850;2022-07-06T10:29:31;102251.53;;;29.88;25.75
51603;BME280;37954;51.980;5.850;2022-07-06T10:33:45;102263.38;;;30.02;25.56
51603;BME280;37954;51.980;5.850;2022-07-06T10:38:57;102227.38;;;30.10;25.07
51603;BME280;37954;51.980;5.850;2022-07-06T10:43:41;102240.06;;;30.03;25.11
51603;BME280;37954;51.980;5.850;2022-07-06T10:53:00;102249.59;;;30.19;25.74
51603;BME280;37954;51.980;5.850;2022-07-06T10:57:24;102219.69;;;30.47;25.88
51603;BME280;37954;51.980;5.850;2022-07-06T11:02:15;102239.38;;;30.76;25.84
51603;BME280;37954;51.980;5.850;2022-07-06T11:06:27;102260.34;;;31.17;25.88
51603;BME280;37954;51.980;5.850;2022-07-06T11:10:47;102254.91;;;31.81;24.96
51603;BME280;37954;51.980;5.850;2022-07-06T11:14:59;102240.69;;;31.57;24.48
51603;BME280;37954;51.980;5.850;2022-07-06T11:19:17;102251.34;;;31.20;24.72
51603;BME280;37954;51.980;5.850;2022-07-06T11:23:30;102234.63;;;30.29;25.94
51603;BME280;37954;51.980;5.850;2022-07-06T11:27:42;102243.09;;;30.72;25.65
51603;BME280;37954;51.980;5.850;2022-07-06T11:31:58;102242.03;;;31.51;25.33
51603;BME280;37954;51.980;5.850;2022-07-06T11:36:20;102228.69;;;31.99;24.48
51603;BME280;37954;51.980;5.850;2022-07-06T11:40:37;102218.69;;;32.45;24.09
51603;BME280;37954;51.980;5.850;2022-07-06T11:44:49;102213.41;;;32.52;23.17
51603;BME280;37954;51.980;5.850;2022-07-06T11:49:09;102210.16;;;30.79;23.85
51603;BME280;37954;51.980;5.850;2022-07-06T11:53:20;102216.75;;;30.43;25.12
51603;BME280;37954;51.980;5.850;2022-07-06T11:57:57;102217.06;;;30.42;25.39
51603;BME280;37954;51.980;5.850;2022-07-06T12:02:12;102211.41;;;30.56;25.11
51603;BME280;37954;51.980;5.850;2022-07-06T12:06:26;102202.31;;;30.33;25.67
51603;BME280;37954;51.980;5.850;2022-07-06T12:10:38;102188.69;;;30.45;26.51
51603;BME280;37954;51.980;5.850;2022-07-06T12:14:52;102189.91;;;30.78;26.40
51603;BME280;37954;51.980;5.850;2022-07-06T12:19:07;102187.78;;;30.75;25.83
51603;BME280;37954;51.980;5.850;2022-07-06T12:23:19;102190.06;;;30.65;25.85
51603;BME280;37954;51.980;5.850;2022-07-06T13:08:05;102159.81;;;28.50;28.92
51603;BME280;37954;51.980;5.850;2022-07-06T13:12:17;102145.13;;;28.63;28.34
51603;BME280;37954;51.980;5.850;2022-07-06T13:16:28;102160.09;;;28.62;28.36
51603;BME280;37954;51.980;5.850;2022-07-06T13:20:45;102134.44;;;28.48;28.89
51603;BME280;37954;51.980;5.850;2022-07-06T13:24:57;102162.78;;;28.40;29.19
51603;BME280;37954;51.980;5.850;2022-07-06T13:29:09;102158.59;;;28.15;29.33
51603;BME280;37954;51.980;5.850;2022-07-06T13:33:22;102141.41;;;28.04;29.18
51603;BME280;37954;51.980;5.850;2022-07-06T13:37:34;102148.34;;;28.43;30.07
51603;BME280;37954;51.980;5.850;2022-07-06T13:41:46;102133.19;;;28.54;29.43
51603;BME280;37954;51.980;5.850;2022-07-06T13:45:58;102104.66;;;28.18;29.31
51603;BME280;37954;51.980;5.850;2022-07-06T13:50:10;102137.09;;;28.12;29.39
51603;BME280;37954;51.980;5.850;2022-07-06T13:54:22;102122.97;;;28.27;29.54
51603;BME280;37954;51.980;5.850;2022-07-06T13:58:35;102100.88;;;28.27;29.86
51603;BME280;37954;51.980;5.850;2022-07-06T14:02:47;102116.09;;;28.52;29.36
51603;BME280;37954;51.980;5.850;2022-07-06T14:06:59;102108.88;;;28.65;29.11
51603;BME280;37954;51.980;5.850;2022-07-06T14:11:12;102116.34;;;28.64;29.04
51603;BME280;37954;51.980;5.850;2022-07-06T14:15:24;102114.03;;;28.44;29.13
51603;BME280;37954;51.980;5.850;2022-07-06T14:19:35;102105.91;;;28.61;29.19
51603;BME280;37954;51.980;5.850;2022-07-06T14:23:47;102097.25;;;28.54;29.19
51603;BME280;37954;51.980;5.850;2022-07-06T14:28:24;102100.25;;;28.66;29.56
51603;BME280;37954;51.980;5.850;2022-07-06T14:32:36;102087.41;;;28.84;29.56
51603;BME280;37954;51.980;5.850;2022-07-06T14:36:47;102091.63;;;28.82;29.00
51603;BME280;37954;51.980;5.850;2022-07-06T14:40:59;102086.78;;;28.51;29.08
51603;BME280;37954;51.980;5.850;2022-07-06T14:45:11;102075.06;;;28.32;29.19
51603;BME280;37954;51.980;5.850;2022-07-06T14:49:22;102076.59;;;28.24;29.84
51603;BME280;37954;51.980;5.850;2022-07-06T14:53:34;102067.91;;;28.17;29.67
51603;BME280;37954;51.980;5.850;2022-07-06T14:57:46;102073.75;;;28.16;29.58
51603;BME280;37954;51.980;5.850;2022-07-06T15:01:58;102079.38;;;27.97;29.46
51603;BME280;37954;51.980;5.850;2022-07-06T15:06:10;102077.75;;;27.68;29.84
51603;BME280;37954;51.980;5.850;2022-07-06T15:10:42;102063.28;;;27.44;29.88
51603;BME280;37954;51.980;5.850;2022-07-06T15:14:54;102080.63;;;27.31;30.48
51603;BME280;37954;51.980;5.850;2022-07-06T15:19:05;102069.66;;;27.12;30.93
51603;BME280;37954;51.980;5.850;2022-07-06T15:23:18;102070.25;;;27.09;31.19
51603;BME280;37954;51.980;5.850;2022-07-06T15:27:30;102054.84;;;26.89;31.37
51603;BME280;37954;51.980;5.850;2022-07-06T15:31:42;102054.50;;;26.77;31.89
51603;BME280;37954;51.980;5.850;2022-07-06T15:35:53;102046.22;;;26.96;32.32
51603;BME280;37954;51.980;5.850;2022-07-06T15:40:06;102041.41;;;27.01;32.32
51603;BME280;37954;51.980;5.850;2022-07-06T15:44:23;102041.22;;;26.98;32.09
51603;BME280;37954;51.980;5.850;2022-07-06T15:48:34;102042.63;;;26.77;31.83
51603;BME280;37954;51.980;5.850;2022-07-06T15:52:47;102053.03;;;26.47;32.20
51603;BME280;37954;51.980;5.850;2022-07-06T15:56:58;102043.44;;;26.21;32.65
51603;BME280;37954;51.980;5.850;2022-07-06T16:01:11;102037.91;;;26.02;33.05
51603;BME280;37954;51.980;5.850;2022-07-06T16:05:23;102038.13;;;25.87;33.29
51603;BME280;37954;51.980;5.850;2022-07-06T16:09:35;102034.38;;;25.49;33.58
51603;BME280;37954;51.980;5.850;2022-07-06T16:13:48;102040.06;;;25.33;34.38
51603;BME280;37954;51.980;5.850;2022-07-06T16:18:07;102036.34;;;25.19;34.77
51603;BME280;37954;51.980;5.850;2022-07-06T16:22:18;102025.47;;;25.09;35.09
51603;BME280;37954;51.980;5.850;2022-07-06T16:26:30;102025.47;;;25.09;35.66
51603;BME280;37954;51.980;5.850;2022-07-06T16:30:41;102013.00;;;24.83;36.06
51603;BME280;37954;51.980;5.850;2022-07-06T16:34:56;102008.19;;;24.70;36.12
51603;BME280;37954;51.980;5.850;2022-07-06T16:39:08;102012.00;;;24.74;36.34
51603;BME280;37954;51.980;5.850;2022-07-06T16:43:20;102007.88;;;24.71;36.51
51603;BME280;37954;51.980;5.850;2022-07-06T16:47:31;102006.53;;;24.69;36.72
51603;BME280;37954;51.980;5.850;2022-07-06T16:51:43;101977.84;;;24.46;37.04
51603;BME280;37954;51.980;5.850;2022-07-06T16:55:56;101991.53;;;24.56;37.11
51603;BME280;37954;51.980;5.850;2022-07-06T17:00:23;101977.50;;;24.57;37.47
51603;BME280;37954;51.980;5.850;2022-07-06T17:04:35;101977.00;;;24.50;38.16
51603;BME280;37954;51.980;5.850;2022-07-06T17:09:00;101958.47;;;24.27;38.78
51603;BME280;37954;51.980;5.850;2022-07-06T17:13:14;101962.59;;;24.24;39.23
51603;BME280;37954;51.980;5.850;2022-07-06T17:17:27;101960.09;;;24.33;39.63
51603;BME280;37954;51.980;5.850;2022-07-06T17:21:46;101953.28;;;24.20;39.81
51603;BME280;37954;51.980;5.850;2022-07-06T17:26:08;101926.13;;;24.14;40.30
51603;BME280;37954;51.980;5.850;2022-07-06T17:30:23;101917.41;;;24.07;40.24
51603;BME280;37954;51.980;5.850;2022-07-06T17:34:37;101941.69;;;24.34;40.54
51603;BME280;37954;51.980;5.850;2022-07-06T17:38:49;101935.13;;;24.29;40.64
51603;BME280;37954;51.980;5.850;2022-07-06T20:01:24;101904.09;;;21.78;49.55
51603;BME280;37954;51.980;5.850;2022-07-06T20:12:35;101893.97;;;21.74;49.94
51603;BME280;37954;51.980;5.850;2022-07-06T20:18:33;101879.16;;;21.65;50.33
51603;BME280;37954;51.980;5.850;2022-07-06T20:23:34;101886.00;;;21.67;51.00
51603;BME280;37954;51.980;5.850;2022-07-06T20:28:00;101855.88;;;21.52;51.59
51603;BME280;37954;51.980;5.850;2022-07-06T20:33:08;101876.41;;;21.54;51.90
51603;BME280;37954;51.980;5.850;2022-07-06T20:37:58;101866.50;;;21.38;52.36
51603;BME280;37954;51.980;5.850;2022-07-06T20:42:10;101865.13;;;21.36;53.04
51603;BME280;37954;51.980;5.850;2022-07-06T20:46:21;101860.44;;;21.26;53.28
51603;BME280;37954;51.980;5.850;2022-07-06T20:50:33;101866.97;;;21.20;53.49
51603;BME280;37954;51.980;5.850;2022-07-06T20:54:45;101877.09;;;21.25;53.88
51603;BME280;37954;51.980;5.850;2022-07-06T20:59:00;101871.34;;;21.21;54.61
51603;BME280;37954;51.980;5.850;2022-07-06T21:03:23;101861.72;;;21.18;55.00
51603;BME280;37954;51.980;5.850;2022-07-06T21:07:41;101854.63;;;21.12;55.03
51603;BME280;37954;51.980;5.850;2022-07-06T21:11:55;101834.59;;;21.02;56.48
51603;BME280;37954;51.980;5.850;2022-07-06T21:16:13;101836.81;;;21.05;56.59
51603;BME280;37954;51.980;5.850;2022-07-06T21:20:28;101826.16;;;21.03;56.33
51603;BME280;37954;51.980;5.850;2022-07-06T21:24:39;101842.56;;;21.08;56.58
51603;BME280;37954;51.980;5.850;2022-07-06T21:28:51;101841.75;;;21.08;56.54
51603;BME280;37954;51.980;5.850;2022-07-06T21:33:11;101838.16;;;21.02;56.59
51603;BME280;37954;51.980;5.850;2022-07-06T21:37:22;101834.63;;;21.07;56.60
51603;BME280;37954;51.980;5.850;2022-07-06T21:41:36;101841.97;;;21.01;57.28
51603;BME280;37954;51.980;5.850;2022-07-06T21:46:07;101827.75;;;20.99;57.67
51603;BME280;37954;51.980;5.850;2022-07-06T21:50:29;101812.44;;;20.93;57.50
51603;BME280;37954;51.980;5.850;2022-07-06T21:54:43;101825.56;;;20.96;57.79
51603;BME280;37954;51.980;5.850;2022-07-06T21:58:58;101836.28;;;21.08;57.45
51603;BME280;37954;51.980;5.850;2022-07-06T22:03:15;101817.66;;;21.00;57.75
51603;BME280;37954;51.980;5.850;2022-07-06T22:07:27;101820.91;;;20.97;58.20
51603;BME280;37954;51.980;5.850;2022-07-06T22:11:45;101808.59;;;20.89;58.62
51603;BME280;37954;51.980;5.850;2022-07-06T22:15:58;101791.63;;;20.77;59.07
51603;BME280;37954;51.980;5.850;2022-07-06T22:20:11;101800.63;;;20.82;59.00
51603;BME280;37954;51.980;5.850;2022-07-06T22:24:23;101771.56;;;20.61;59.32
51603;BME280;37954;51.980;5.850;2022-07-06T22:28:38;101795.97;;;20.73;59.78
51603;BME280;37954;51.980;5.850;2022-07-06T22:32:53;101770.09;;;20.43;60.71
51603;BME280;37954;51.980;5.850;2022-07-06T22:37:10;101811.13;;;20.54;62.19
51603;BME280;37954;51.980;5.850;2022-07-06T22:41:25;101793.59;;;20.44;62.49
51603;BME280;37954;51.980;5.850;2022-07-06T22:45:37;101773.78;;;20.27;62.67
51603;BME280;37954;51.980;5.850;2022-07-06T22:49:49;101780.44;;;20.36;62.83
51603;BME280;37954;51.980;5.850;2022-07-06T22:54:05;101777.66;;;20.31;62.98
51603;BME280;37954;51.980;5.850;2022-07-06T22:58:17;101768.56;;;20.21;63.62
51603;BME280;37954;51.980;5.850;2022-07-06T23:02:29;101778.66;;;20.20;63.95
51603;BME280;37954;51.980;5.850;2022-07-06T23:06:44;101756.78;;;20.15;64.37
51603;BME280;37954;51.980;5.850;2022-07-06T23:11:05;101767.22;;;20.23;64.78
51603;BME280;37954;51.980;5.850;2022-07-06T23:15:17;101740.44;;;20.15;64.54
51603;BME280;37954;51.980;5.850;2022-07-06T23:19:29;101722.09;;;20.05;64.36
51603;BME280;37954;51.980;5.850;2022-07-06T23:23:41;101751.03;;;20.11;64.55
51603;BME280;37954;51.980;5.850;2022-07-06T23:27:57;101728.81;;;19.93;64.56
51603;BME280;37954;51.980;5.850;2022-07-06T23:32:08;101733.09;;;19.84;65.15
51603;BME280;37954;51.980;5.850;2022-07-06T23:36:21;101741.34;;;19.89;65.36
51603;BME280;37954;51.980;5.850;2022-07-06T23:40:34;101712.31;;;19.72;65.86
51603;BME280;37954;51.980;5.850;2022-07-06T23:44:46;101725.19;;;19.82;66.09
51603;BME280;37954;51.980;5.850;2022-07-06T23:48:58;101703.06;;;19.78;66.13
51603;BME280;37954;51.980;5.850;2022-07-06T23:53:10;101698.78;;;19.88;66.31
51603;BME280;37954;51.980;5.850;2022-07-06T23:57:32;101704.28;;;19.98;66.40
